createdAt,value
2023-05-05T00:01:32.508Z,83.06
2023-05-05T00:03:59.430Z,84.88
2023-05-05T00:06:27.952Z,86.40
2023-05-05T00:08:55.558Z,86.65
2023-05-05T00:11:22.345Z,87.15
2023-05-05T00:13:49.305Z,86.69
2023-05-05T00:16:17.004Z,85.06
2023-05-05T00:18:44.217Z,83.84
2023-05-05T00:21:11.837Z,83.35
2023-05-05T00:23:38.923Z,84.18
2023-05-05T00:26:06.081Z,83.63
2023-05-05T00:28:33.532Z,83.84
2023-05-05T00:31:00.942Z,83.08
2023-05-05T00:33:28.134Z,82.88
2023-05-05T00:35:54.827Z,83.30
2023-05-05T00:38:21.616Z,83.64
2023-05-05T00:40:48.416Z,81.83
2023-05-05T00:43:15.234Z,79.46
2023-05-05T00:45:47.424Z,76.56
2023-05-05T00:48:14.480Z,76.82
2023-05-05T00:50:41.461Z,73.40
2023-05-05T00:53:08.866Z,72.60
2023-05-05T00:55:36.171Z,73.89
2023-05-05T00:58:03.833Z,74.13
2023-05-05T01:00:30.903Z,74.27
2023-05-05T01:02:58.465Z,74.02
2023-05-05T01:05:26.469Z,73.13
2023-05-05T01:08:27.076Z,73.69
2023-05-05T01:10:58.273Z,76.68
2023-05-05T01:13:49.649Z,75.38
2023-05-05T01:16:19.970Z,74.67
2023-05-05T01:18:58.208Z,76.29
2023-05-05T01:21:28.350Z,78.12
2023-05-05T01:24:30.625Z,78.52
2023-05-05T01:27:00.016Z,78.80
2023-05-05T01:29:27.275Z,77.24
2023-05-05T01:32:00.792Z,75.47
2023-05-05T01:34:31.669Z,74.75
2023-05-05T01:37:07.706Z,74.92
2023-05-05T01:39:34.923Z,75.32
2023-05-05T01:42:04.689Z,76.95
2023-05-05T01:44:33.246Z,76.18
2023-05-05T01:47:00.259Z,74.99
2023-05-05T01:49:27.507Z,73.46
2023-05-05T01:51:55.483Z,91.67
2023-05-05T01:54:23.649Z,100.00
2023-05-05T01:56:50.591Z,100.00
2023-05-05T01:59:17.651Z,100.00
2023-05-05T02:01:46.624Z,100.00
2023-05-05T02:04:13.920Z,100.00
2023-05-05T02:06:41.338Z,100.00
2023-05-05T02:09:09.203Z,100.00
2023-05-05T02:11:36.189Z,100.00
2023-05-05T02:14:03.081Z,100.00
2023-05-05T02:16:30.653Z,100.00
2023-05-05T02:18:59.028Z,99.83
2023-05-05T02:21:25.876Z,96.43
2023-05-05T02:23:52.691Z,92.74
2023-05-05T02:26:21.049Z,91.98
2023-05-05T02:28:49.273Z,93.24
2023-05-05T02:31:17.591Z,100.00
2023-05-05T02:33:44.445Z,100.00
2023-05-05T02:36:21.614Z,100.00
2023-05-05T02:38:57.737Z,100.00
2023-05-05T02:41:26.312Z,100.00
2023-05-05T02:43:54.341Z,100.00
2023-05-05T02:46:21.846Z,100.00
2023-05-05T02:48:48.779Z,100.00
2023-05-05T02:51:15.549Z,100.00
2023-05-05T02:53:42.326Z,100.00
2023-05-05T02:56:30.651Z,100.00
2023-05-05T02:59:19.794Z,100.00
2023-05-05T03:02:14.836Z,99.86
2023-05-05T03:04:45.308Z,100.00
2023-05-05T03:07:15.331Z,100.00
2023-05-05T03:09:55.577Z,100.00
2023-05-05T03:12:22.400Z,99.35
2023-05-05T03:15:01.452Z,97.00
2023-05-05T03:17:29.947Z,100.00
2023-05-05T03:19:57.381Z,100.00
2023-05-05T03:22:26.829Z,98.54
2023-05-05T03:24:54.143Z,98.85
2023-05-05T03:27:23.444Z,100.00
2023-05-05T03:29:51.557Z,98.96
2023-05-05T03:32:18.546Z,93.99
2023-05-05T03:34:45.657Z,95.74
2023-05-05T03:37:12.858Z,93.11
2023-05-05T03:39:40.445Z,95.97
2023-05-05T03:42:07.668Z,93.31
2023-05-05T03:44:36.008Z,93.79
2023-05-05T03:47:03.439Z,93.26
2023-05-05T03:49:32.046Z,93.28
2023-05-05T03:51:59.133Z,92.69
2023-05-05T03:54:25.804Z,92.24
2023-05-05T03:56:52.659Z,90.84
2023-05-05T03:59:19.562Z,89.72
2023-05-05T04:01:48.447Z,89.98
2023-05-05T04:04:15.885Z,92.33
2023-05-05T04:06:42.703Z,91.77
2023-05-05T04:09:11.571Z,89.03
2023-05-05T04:11:38.478Z,86.68
2023-05-05T04:14:05.472Z,86.01
2023-05-05T04:16:32.572Z,83.96
2023-05-05T04:18:59.623Z,82.05
2023-05-05T04:21:26.873Z,80.33
2023-05-05T04:23:53.703Z,78.74
2023-05-05T04:26:21.272Z,78.10
2023-05-05T04:28:48.728Z,75.30
2023-05-05T04:31:16.118Z,73.71
2023-05-05T04:33:43.366Z,70.60
2023-05-05T04:36:10.966Z,71.36
2023-05-05T04:38:37.901Z,76.38
2023-05-05T04:41:08.159Z,77.06
2023-05-05T04:43:35.719Z,76.46
2023-05-05T04:46:03.197Z,74.52
2023-05-05T04:48:31.554Z,73.11
2023-05-05T04:50:58.509Z,72.36
2023-05-05T04:53:25.349Z,72.95
2023-05-05T04:55:52.188Z,75.41
2023-05-05T04:58:19.302Z,74.81
2023-05-05T05:00:46.476Z,75.61
2023-05-05T05:03:13.612Z,73.97
2023-05-05T05:05:40.466Z,71.52
2023-05-05T05:08:08.341Z,71.60
2023-05-05T05:10:35.637Z,71.51
2023-05-05T05:13:03.016Z,70.00
2023-05-05T05:15:30.089Z,70.09
2023-05-05T05:17:57.310Z,68.08
2023-05-05T05:20:24.654Z,65.93
2023-05-05T05:22:52.152Z,64.60
2023-05-05T05:25:20.068Z,63.37
2023-05-05T05:27:52.332Z,63.13
2023-05-05T05:30:30.387Z,60.71
2023-05-05T05:32:57.409Z,58.76
2023-05-05T05:35:24.263Z,57.74
2023-05-05T05:37:52.112Z,55.92
2023-05-05T05:40:19.300Z,55.91
2023-05-05T05:42:46.576Z,55.35
2023-05-05T05:45:13.595Z,55.18
2023-05-05T05:47:41.087Z,54.31
2023-05-05T05:50:08.513Z,52.75
2023-05-05T05:52:35.963Z,52.36
2023-05-05T05:55:04.851Z,51.36
2023-05-05T05:57:32.053Z,50.09
2023-05-05T06:00:00.476Z,49.27
2023-05-05T06:02:39.117Z,48.21
2023-05-05T06:05:07.704Z,46.34
2023-05-05T06:07:35.135Z,45.54
2023-05-05T06:10:14.506Z,44.94
2023-05-05T06:12:49.061Z,44.05
2023-05-05T06:15:16.083Z,43.92
2023-05-05T06:17:43.313Z,43.91
2023-05-05T06:20:12.354Z,43.61
2023-05-05T06:22:39.329Z,42.56
2023-05-05T06:25:07.201Z,41.83
2023-05-05T06:27:34.772Z,41.90
2023-05-05T06:30:01.793Z,40.85
2023-05-05T06:32:28.859Z,40.24
2023-05-05T06:34:55.837Z,39.79
2023-05-05T06:37:22.636Z,39.63
2023-05-05T06:39:49.686Z,39.01
2023-05-05T06:42:16.509Z,38.08
2023-05-05T06:44:43.226Z,37.89
2023-05-05T06:47:10.237Z,37.25
2023-05-05T06:49:37.035Z,37.21
2023-05-05T06:52:04.047Z,37.00
2023-05-05T06:54:30.981Z,37.49
2023-05-05T06:56:59.580Z,39.28
2023-05-05T06:59:26.678Z,38.94
2023-05-05T07:01:53.641Z,38.71
2023-05-05T07:04:21.047Z,37.97
2023-05-05T07:06:48.027Z,36.78
2023-05-05T07:09:17.022Z,35.06
2023-05-05T07:11:44.545Z,34.50
2023-05-05T07:14:11.402Z,34.63
2023-05-05T07:16:38.801Z,34.97
2023-05-05T07:19:05.814Z,37.36
2023-05-05T07:21:33.587Z,36.38
2023-05-05T07:24:01.511Z,35.69
2023-05-05T07:26:28.493Z,35.44
2023-05-05T07:28:56.744Z,35.13
2023-05-05T07:31:23.817Z,33.97
2023-05-05T07:33:50.735Z,33.71
2023-05-05T07:36:17.800Z,34.24
2023-05-05T07:38:44.630Z,34.74
2023-05-05T07:41:12.509Z,34.53
2023-05-05T07:43:44.072Z,33.28
2023-05-05T07:46:11.769Z,33.31
2023-05-05T07:48:40.614Z,32.58
2023-05-05T07:51:07.464Z,31.88
2023-05-05T07:53:34.255Z,32.18
2023-05-05T07:56:01.064Z,32.34
2023-05-05T07:58:27.934Z,32.34
2023-05-05T08:00:54.828Z,31.73
2023-05-05T08:03:23.817Z,30.84
2023-05-05T08:05:53.293Z,31.39
2023-05-05T08:08:23.845Z,31.93
2023-05-05T08:10:51.401Z,32.22
2023-05-05T08:13:18.580Z,32.04
2023-05-05T08:15:45.702Z,33.29
2023-05-05T08:18:13.493Z,35.21
2023-05-05T08:20:40.410Z,38.02
2023-05-05T08:23:07.379Z,35.23
2023-05-05T08:25:34.261Z,32.62
2023-05-05T08:28:01.077Z,31.45
2023-05-05T08:30:27.795Z,31.56
2023-05-05T08:32:54.582Z,31.46
2023-05-05T08:35:21.576Z,32.03
2023-05-05T08:37:50.553Z,32.05
2023-05-05T08:40:17.390Z,30.68
2023-05-05T08:42:45.274Z,30.57
2023-05-05T08:45:12.662Z,30.20
2023-05-05T08:47:40.387Z,29.44
2023-05-05T08:50:09.912Z,28.13
2023-05-05T08:52:39.710Z,28.32
2023-05-05T08:55:14.152Z,28.59
2023-05-05T08:57:50.942Z,28.99
2023-05-05T09:00:19.293Z,28.08
2023-05-05T09:02:46.491Z,27.73
2023-05-05T09:05:13.573Z,27.64
2023-05-05T09:07:43.026Z,26.46
2023-05-05T09:10:10.904Z,27.13
2023-05-05T09:12:39.813Z,31.75
2023-05-05T09:15:13.639Z,31.91
2023-05-05T09:17:41.014Z,31.27
2023-05-05T09:20:12.034Z,32.79
2023-05-05T09:22:46.145Z,32.45
2023-05-05T09:25:14.199Z,33.09
2023-05-05T09:27:45.521Z,30.40
2023-05-05T09:30:16.049Z,29.88
2023-05-05T09:32:47.461Z,30.02
2023-05-05T09:35:14.413Z,30.18
2023-05-05T09:37:41.224Z,30.24
2023-05-05T09:40:10.885Z,30.02
2023-05-05T09:42:38.955Z,30.84
2023-05-05T09:45:18.193Z,30.88
2023-05-05T09:47:46.439Z,30.50
2023-05-05T09:50:15.404Z,30.62
2023-05-05T09:52:42.761Z,29.95
2023-05-05T09:55:18.868Z,29.47
2023-05-05T09:57:46.734Z,29.70
2023-05-05T10:00:14.223Z,29.61
2023-05-05T10:02:41.268Z,29.68
2023-05-05T10:05:18.262Z,29.34
2023-05-05T10:07:46.439Z,29.41
2023-05-05T10:10:13.978Z,29.23
2023-05-05T10:12:41.672Z,29.40
2023-05-05T10:15:10.528Z,28.96
2023-05-05T10:18:07.049Z,28.99
2023-05-05T10:20:35.830Z,28.25
2023-05-05T10:23:02.683Z,28.26
2023-05-05T10:25:32.831Z,28.86
2023-05-05T10:28:00.773Z,28.18
2023-05-05T10:30:33.800Z,28.20
2023-05-05T10:33:34.775Z,28.56
2023-05-05T10:36:04.695Z,29.24
2023-05-05T10:38:32.162Z,29.64
2023-05-05T10:40:59.372Z,29.78
2023-05-05T10:43:27.529Z,29.40
2023-05-05T10:45:54.227Z,29.22
2023-05-05T10:48:46.581Z,28.59
2023-05-05T10:51:27.339Z,27.92
2023-05-05T10:54:15.411Z,26.92
2023-05-05T10:56:42.602Z,26.96
2023-05-05T10:59:37.460Z,26.44
2023-05-05T11:02:20.499Z,25.88
2023-05-05T11:05:09.624Z,26.65
2023-05-05T11:07:36.890Z,27.19
2023-05-05T11:10:04.814Z,27.63
2023-05-05T11:12:32.303Z,27.01
2023-05-05T11:15:30.811Z,27.09
2023-05-05T11:17:58.379Z,26.54
2023-05-05T11:20:40.687Z,25.42
2023-05-05T11:23:07.510Z,25.48
2023-05-05T11:25:41.465Z,24.86
2023-05-05T11:28:19.293Z,24.85
2023-05-05T11:30:56.062Z,24.83
2023-05-05T11:33:30.251Z,24.84
2023-05-05T11:36:06.735Z,24.82
2023-05-05T11:38:58.607Z,25.95
2023-05-05T11:41:34.460Z,26.72
2023-05-05T11:44:16.967Z,25.23
2023-05-05T11:46:52.669Z,25.11
2023-05-05T11:49:29.982Z,25.63
2023-05-05T11:52:00.987Z,25.56
2023-05-05T11:54:27.999Z,25.35
2023-05-05T11:56:58.645Z,25.83
2023-05-05T11:59:26.349Z,25.69
2023-05-05T12:01:53.225Z,25.22
2023-05-05T12:04:19.984Z,24.94
2023-05-05T12:06:48.409Z,24.99
2023-05-05T12:09:16.999Z,25.23
2023-05-05T12:11:56.467Z,25.61
2023-05-05T12:14:24.028Z,24.88
2023-05-05T12:16:55.170Z,24.72
2023-05-05T12:19:21.982Z,25.37
2023-05-05T12:21:48.985Z,24.87
2023-05-05T12:24:15.947Z,24.39
2023-05-05T12:26:42.891Z,24.17
2023-05-05T12:29:10.378Z,23.90
2023-05-05T12:31:38.019Z,24.28
2023-05-05T12:34:05.754Z,24.32
2023-05-05T12:36:33.455Z,24.16
2023-05-05T12:39:00.263Z,23.83
2023-05-05T12:41:27.505Z,24.28
2023-05-05T12:43:57.825Z,24.28
2023-05-05T12:46:25.876Z,23.98
2023-05-05T12:49:04.277Z,24.45
2023-05-05T12:51:32.058Z,24.44
2023-05-05T12:54:02.950Z,23.98
2023-05-05T12:56:43.490Z,23.09
2023-05-05T12:59:11.927Z,23.77
2023-05-05T13:01:49.399Z,23.43
2023-05-05T13:04:16.323Z,22.96
2023-05-05T13:06:44.703Z,22.23
2023-05-05T13:09:27.498Z,22.13
2023-05-05T13:11:54.300Z,22.37
2023-05-05T13:14:21.581Z,22.08
2023-05-05T13:16:48.707Z,22.43
2023-05-05T13:19:15.651Z,22.47
2023-05-05T13:21:42.324Z,22.42
2023-05-05T13:24:23.701Z,22.52
2023-05-05T13:26:56.013Z,22.57
2023-05-05T13:29:24.680Z,22.25
2023-05-05T13:31:54.092Z,22.25
2023-05-05T13:34:21.193Z,21.87
2023-05-05T13:36:48.005Z,22.67
2023-05-05T13:39:15.279Z,22.11
2023-05-05T13:41:44.021Z,22.79
2023-05-05T13:44:11.682Z,23.30
2023-05-05T13:46:38.482Z,23.21
2023-05-05T13:49:05.289Z,23.75
2023-05-05T13:51:34.051Z,23.24
2023-05-05T13:54:20.643Z,23.02
2023-05-05T13:56:47.335Z,22.89
2023-05-05T13:59:14.053Z,23.00
2023-05-05T14:01:40.872Z,23.74
2023-05-05T14:04:08.214Z,24.11
2023-05-05T14:06:35.530Z,24.49
2023-05-05T14:09:05.085Z,24.92
2023-05-05T14:11:32.192Z,25.34
2023-05-05T14:13:58.945Z,25.92
2023-05-05T14:16:25.698Z,26.68
2023-05-05T14:18:52.725Z,26.69
2023-05-05T14:21:19.477Z,26.85
2023-05-05T14:23:46.276Z,26.52
2023-05-05T14:26:13.138Z,26.75
2023-05-05T14:28:39.976Z,26.43
2023-05-05T14:31:06.692Z,25.83
2023-05-05T14:33:33.756Z,24.87
2023-05-05T14:36:00.526Z,24.19
2023-05-05T14:38:27.649Z,23.85
2023-05-05T14:40:54.711Z,24.32
2023-05-05T14:43:21.906Z,24.57
2023-05-05T14:45:48.638Z,24.82
2023-05-05T14:48:16.083Z,24.80
2023-05-05T14:50:45.717Z,23.89
2023-05-05T14:53:13.029Z,23.26
2023-05-05T14:55:39.893Z,23.36
2023-05-05T14:58:06.812Z,23.14
2023-05-05T15:00:33.621Z,22.76
2023-05-05T15:03:00.586Z,22.73
2023-05-05T15:05:27.713Z,23.06
2023-05-05T15:07:54.699Z,22.62
2023-05-05T15:10:22.192Z,22.81
2023-05-05T15:12:50.502Z,23.33
2023-05-05T15:15:17.444Z,24.12
2023-05-05T15:17:44.229Z,24.58
2023-05-05T15:20:11.469Z,24.76
2023-05-05T15:22:38.636Z,24.92
2023-05-05T15:25:09.076Z,24.35
2023-05-05T15:27:37.482Z,24.23
2023-05-05T15:30:05.414Z,23.83
2023-05-05T15:32:32.824Z,23.90
2023-05-05T15:34:59.908Z,24.44
2023-05-05T15:37:28.270Z,29.31
2023-05-05T15:39:55.645Z,29.39
2023-05-05T15:42:22.464Z,29.62
2023-05-05T15:44:49.210Z,30.03
2023-05-05T15:47:16.061Z,30.20
2023-05-05T15:49:42.931Z,30.18
2023-05-05T15:52:09.758Z,30.13
2023-05-05T15:54:36.550Z,29.77
2023-05-05T15:57:03.751Z,30.05
2023-05-05T15:59:30.640Z,30.37
2023-05-05T16:01:57.350Z,30.29
2023-05-05T16:04:24.118Z,30.20
2023-05-05T16:06:50.896Z,29.60
2023-05-05T16:09:17.752Z,29.73
2023-05-05T16:11:44.536Z,29.79
2023-05-05T16:14:11.471Z,29.39
2023-05-05T16:16:38.476Z,29.56
2023-05-05T16:19:05.438Z,29.87
2023-05-05T16:21:32.768Z,29.54
2023-05-05T16:23:59.557Z,29.75
2023-05-05T16:26:26.546Z,29.76
2023-05-05T16:28:53.321Z,29.76
2023-05-05T16:31:20.473Z,29.87
2023-05-05T16:33:47.233Z,29.94
2023-05-05T16:36:14.356Z,29.92
2023-05-05T16:38:41.193Z,30.03
2023-05-05T16:41:07.986Z,30.25
2023-05-05T16:43:37.889Z,30.54
2023-05-05T16:46:05.907Z,30.74
2023-05-05T16:48:33.148Z,31.08
2023-05-05T16:51:00.309Z,31.21
2023-05-05T16:53:27.166Z,31.54
2023-05-05T16:55:53.901Z,31.69
2023-05-05T16:58:21.898Z,32.07
2023-05-05T17:00:49.575Z,32.35
2023-05-05T17:03:17.508Z,32.93
2023-05-05T17:05:44.881Z,33.05
2023-05-05T17:08:13.625Z,33.18
2023-05-05T17:10:43.796Z,33.32
2023-05-05T17:13:10.891Z,33.44
2023-05-05T17:15:37.753Z,33.71
2023-05-05T17:18:05.371Z,34.00
2023-05-05T17:20:32.265Z,34.01
2023-05-05T17:22:59.339Z,34.28
2023-05-05T17:25:26.166Z,34.69
2023-05-05T17:27:56.286Z,34.93
2023-05-05T17:30:23.174Z,34.68
2023-05-05T17:32:50.099Z,34.77
2023-05-05T17:35:16.825Z,34.87
2023-05-05T17:37:43.973Z,35.50
2023-05-05T17:40:10.899Z,36.05
2023-05-05T17:42:38.530Z,37.01
2023-05-05T17:45:06.194Z,36.58
2023-05-05T17:47:33.929Z,36.99
2023-05-05T17:50:01.218Z,37.18
2023-05-05T17:52:28.399Z,37.27
2023-05-05T17:54:55.344Z,40.08
2023-05-05T17:57:22.243Z,41.66
2023-05-05T17:59:49.620Z,41.24
2023-05-05T18:02:16.410Z,41.31
2023-05-05T18:04:43.338Z,41.12
2023-05-05T18:07:11.675Z,41.11
2023-05-05T18:09:38.972Z,41.36
2023-05-05T18:12:07.233Z,41.32
2023-05-05T18:14:34.244Z,41.24
2023-05-05T18:17:01.838Z,41.05
2023-05-05T18:19:28.991Z,40.71
2023-05-05T18:21:56.872Z,40.32
2023-05-05T18:24:23.904Z,40.06
2023-05-05T18:26:51.460Z,39.93
2023-05-05T18:29:18.656Z,39.87
2023-05-05T18:31:47.813Z,39.93
2023-05-05T18:34:16.183Z,39.96
2023-05-05T18:36:43.129Z,39.90
2023-05-05T18:39:09.949Z,40.05
2023-05-05T18:41:37.362Z,39.79
2023-05-05T18:44:04.370Z,39.56
2023-05-05T18:46:31.245Z,39.45
2023-05-05T18:48:58.068Z,39.39
2023-05-05T18:51:25.658Z,39.35
2023-05-05T18:53:53.872Z,39.18
2023-05-05T18:56:21.203Z,39.24
2023-05-05T18:58:48.463Z,39.33
2023-05-05T19:01:15.722Z,39.48
2023-05-05T19:03:47.303Z,39.64
2023-05-05T19:06:14.550Z,39.71
2023-05-05T19:08:42.316Z,39.98
2023-05-05T19:11:09.068Z,40.04
2023-05-05T19:13:36.318Z,42.75
2023-05-05T19:16:03.471Z,43.12
2023-05-05T19:18:30.351Z,43.29
2023-05-05T19:20:57.125Z,43.05
2023-05-05T19:23:23.824Z,43.01
2023-05-05T19:25:52.291Z,43.33
2023-05-05T19:28:19.266Z,43.41
2023-05-05T19:30:48.087Z,43.21
2023-05-05T19:33:15.644Z,43.52
2023-05-05T19:35:43.302Z,43.39
2023-05-05T19:38:10.399Z,43.38
2023-05-05T19:40:38.114Z,42.84
2023-05-05T19:43:05.060Z,42.62
2023-05-05T19:45:33.132Z,42.30
2023-05-05T19:48:00.974Z,41.96
2023-05-05T19:50:29.629Z,47.91
2023-05-05T19:52:57.026Z,50.94
2023-05-05T19:55:23.916Z,48.09
2023-05-05T19:57:51.045Z,47.13
2023-05-05T20:00:18.036Z,47.16
2023-05-05T20:02:45.333Z,47.28
2023-05-05T20:05:13.481Z,46.97
2023-05-05T20:07:43.660Z,46.21
2023-05-05T20:10:12.554Z,45.98
2023-05-05T20:12:46.803Z,45.74
2023-05-05T20:15:19.022Z,45.86
2023-05-05T20:17:46.362Z,46.45
2023-05-05T20:20:19.845Z,47.00
2023-05-05T20:22:47.194Z,47.26
2023-05-05T20:25:17.543Z,47.14
2023-05-05T20:27:47.564Z,47.67
2023-05-05T20:30:14.493Z,48.01
2023-05-05T20:32:41.387Z,48.28
2023-05-05T20:35:08.701Z,48.59
2023-05-05T20:37:35.562Z,49.68
2023-05-05T20:40:02.591Z,48.92
2023-05-05T20:42:30.129Z,49.28
2023-05-05T20:44:57.305Z,49.26
2023-05-05T20:47:24.504Z,49.78
2023-05-05T20:49:51.744Z,49.83
2023-05-05T20:52:18.633Z,48.85
2023-05-05T20:54:45.655Z,49.30
2023-05-05T20:57:12.551Z,53.47
2023-05-05T20:59:39.579Z,56.65
2023-05-05T21:02:06.625Z,58.55
2023-05-05T21:04:33.548Z,59.40
2023-05-05T21:07:00.578Z,60.50
2023-05-05T21:09:27.661Z,63.16
2023-05-05T21:11:54.460Z,64.33
2023-05-05T21:14:21.629Z,63.64
2023-05-05T21:16:48.725Z,64.03
2023-05-05T21:19:15.926Z,64.58
2023-05-05T21:21:42.828Z,64.23
2023-05-05T21:24:09.965Z,65.33
2023-05-05T21:26:36.855Z,63.56
2023-05-05T21:29:03.925Z,63.54
2023-05-05T21:31:30.750Z,63.52
2023-05-05T21:33:57.766Z,63.83
2023-05-05T21:36:24.954Z,64.48
2023-05-05T21:38:54.762Z,64.14
2023-05-05T21:41:22.582Z,64.07
2023-05-05T21:43:49.366Z,65.13
2023-05-05T21:46:17.180Z,65.06
2023-05-05T21:48:45.922Z,64.80
2023-05-05T21:51:12.660Z,64.68
2023-05-05T21:53:40.320Z,63.70
2023-05-05T21:56:07.988Z,62.06
2023-05-05T21:58:34.852Z,60.87
2023-05-05T22:01:01.792Z,60.89
2023-05-05T22:03:29.333Z,59.30
2023-05-05T22:05:56.660Z,57.53
2023-05-05T22:08:23.830Z,59.22
2023-05-05T22:10:50.978Z,60.13
2023-05-05T22:13:17.806Z,59.75
2023-05-05T22:15:47.095Z,58.91
2023-05-05T22:18:14.993Z,58.31
2023-05-05T22:20:42.123Z,58.40
2023-05-05T22:23:08.900Z,57.80
2023-05-05T22:25:35.894Z,57.76
2023-05-05T22:28:02.978Z,58.02
2023-05-05T22:30:30.235Z,58.12
2023-05-05T22:32:57.048Z,57.65
2023-05-05T22:35:23.971Z,56.40
2023-05-05T22:37:51.102Z,54.04
2023-05-05T22:40:17.792Z,53.62
2023-05-05T22:42:44.480Z,53.06
2023-05-05T22:45:12.356Z,52.00
2023-05-05T22:47:39.393Z,51.48
2023-05-05T22:50:07.642Z,52.77
2023-05-05T22:52:34.816Z,53.33
2023-05-05T22:55:02.022Z,52.43
2023-05-05T22:57:29.072Z,77.72
2023-05-05T22:59:56.129Z,75.54
2023-05-05T23:02:23.354Z,68.77
2023-05-05T23:04:52.005Z,65.81
2023-05-05T23:07:18.889Z,64.48
2023-05-05T23:09:46.348Z,63.92
2023-05-05T23:12:13.295Z,65.63
2023-05-05T23:14:40.107Z,64.18
2023-05-05T23:17:06.902Z,64.31
2023-05-05T23:19:34.188Z,64.62
2023-05-05T23:22:01.522Z,63.69
2023-05-05T23:24:28.636Z,65.43
2023-05-05T23:26:58.134Z,65.85
2023-05-05T23:29:25.285Z,65.65
2023-05-05T23:31:52.327Z,64.42
2023-05-05T23:34:19.147Z,65.66
2023-05-05T23:36:46.160Z,66.07
2023-05-05T23:39:12.902Z,76.89
2023-05-05T23:41:39.848Z,73.76
2023-05-05T23:44:06.652Z,71.32
2023-05-05T23:46:34.395Z,70.99
2023-05-05T23:49:01.396Z,71.41
2023-05-05T23:51:28.603Z,71.06
2023-05-05T23:53:56.058Z,72.46
2023-05-05T23:56:23.811Z,69.12
2023-05-05T23:58:52.187Z,69.44
